Airfield :
LOGIN :

Register | Disclaimer

   EN    FR    IT 

 










Legend :    VFR   Marginal VFR   IFR   Intensive IFR   Very Intensive IFR
Visi :
Ceiling :
>= 8 km
>= 3000ft
5 to 8 km
1000 to 3000 ft
1500m to 5 km
500 to 1000 ft
800 to 1500m
200 to 500 ft
< 800m
< 200 ft
Symbols :   Thunderstorms  Fog  Heavy snow  Heavy precipitations  Wind > 20 kt
SIGMETs :     Misc.  Thunderstorms  Icing  Turbulence  Mountain Waves  Volcanic Ashes






- Airport Elevation : 16 ft
- IATA code : SDR


LEXJ - Santander Cantabria

CURRENT METAR :
  • 260000Z AUTO 23004KT 9999 FEW034 OVC058 19/16 Q1016

EXPIRED METARs :
  • 252330Z AUTO 22004KT 9999 SCT030 BKN037 BKN044 19/16 Q1016
  • 252300Z AUTO 24003KT 9999 FEW020 OVC047 19/16 Q1016
  • 252230Z AUTO 22003KT 9999 FEW019 SCT048 BKN056 19/16 Q1016
  • 252200Z AUTO 23004KT 9999 FEW017 BKN046 OVC050 19/16 Q1016
  • 252130Z AUTO 25002KT 9999 FEW035 OVC048 20/17 Q1016

TAF TAF LEXJ
Valid from the 25 at 21:00 until the 26 at 21:00 UTC


252000Z 2521/2621 VRB05KT 9999 SCT020 BKN040 TX23/2614Z TN16/2603Z
PROB40
TEMPO 2521/2604 3000 BR BKN010
PROB30
TEMPO 2606/2612 3000 RA BKN010
PROB40
TEMPO 2610/2618 30010KT



MET'MAP, your aeronautical weather chart ! - Copyright ORBIFLY December 2007 - Disclaimer

ORBIFLY MET'MAP TEAM :

Programming & Development : Alexandra Zaïnal
Concept & original design : Baudouin d'Aumeries
Assistance for programming : Marc-Olivier Méhu
Technical & hardware support : Manuel Goepfert

Contact : metmap@orbifly.com




SOURCES & CREDITS :

   NOAA